createdAt,value
2023-04-18T00:00:46.925Z,0
2023-04-18T00:03:13.025Z,0
2023-04-18T00:05:39.120Z,0
2023-04-18T00:08:05.251Z,0
2023-04-18T00:10:31.306Z,0
2023-04-18T00:12:57.433Z,0
2023-04-18T00:15:23.483Z,0
2023-04-18T00:17:49.609Z,0
2023-04-18T00:20:15.696Z,0
2023-04-18T00:22:40.793Z,0
2023-04-18T00:27:32.982Z,0
2023-04-18T00:29:59.087Z,0
2023-04-18T00:32:24.210Z,0
2023-04-18T00:34:50.286Z,0
2023-04-18T00:37:16.399Z,0
2023-04-18T00:39:42.494Z,0
2023-04-18T00:42:08.585Z,0
2023-04-18T00:44:34.699Z,0
2023-04-18T00:47:00.794Z,0
2023-04-18T00:49:26.865Z,0
2023-04-18T00:51:52.983Z,0
2023-04-18T00:54:19.081Z,0
2023-04-18T00:56:45.160Z,0
2023-04-18T00:59:11.325Z,0
2023-04-18T01:01:37.392Z,0
2023-04-18T01:04:03.487Z,0
2023-04-18T01:06:29.590Z,0
2023-04-18T01:08:55.690Z,0
2023-04-18T01:11:21.762Z,0
2023-04-18T01:13:47.883Z,0
2023-04-18T01:16:13.945Z,0
2023-04-18T01:18:40.020Z,0
2023-04-18T01:21:06.140Z,0
2023-04-18T01:23:32.218Z,0
2023-04-18T01:25:58.340Z,0
2023-04-18T01:28:24.459Z,0
2023-04-18T01:30:50.511Z,0
2023-04-18T01:33:15.624Z,0
2023-04-18T01:35:40.745Z,0
2023-04-18T01:38:05.872Z,0
2023-04-18T01:40:30.974Z,0
2023-04-18T01:42:57.073Z,0
2023-04-18T01:45:23.169Z,0
2023-04-18T01:47:49.269Z,0
2023-04-18T01:50:15.364Z,0
2023-04-18T01:52:41.451Z,0
2023-04-18T01:55:07.540Z,0
2023-04-18T01:57:33.649Z,0
2023-04-18T01:59:59.751Z,0
2023-04-18T02:02:25.854Z,0
2023-04-18T02:04:51.923Z,0
2023-04-18T02:07:18.032Z,0
2023-04-18T02:09:44.127Z,0
2023-04-18T02:12:10.232Z,0
2023-04-18T02:14:36.332Z,0
2023-04-18T02:17:02.413Z,0
2023-04-18T02:19:28.526Z,0
2023-04-18T02:21:54.610Z,0
2023-04-18T02:24:20.698Z,0
2023-04-18T02:26:46.808Z,0
2023-04-18T02:29:12.882Z,0
2023-04-18T02:31:38.998Z,0
2023-04-18T02:34:05.108Z,0
2023-04-18T02:36:30.206Z,0
2023-04-18T02:38:55.362Z,0
2023-04-18T02:41:20.440Z,0
2023-04-18T02:43:45.554Z,0
2023-04-18T02:46:11.655Z,0
2023-04-18T02:48:36.782Z,0
2023-04-18T02:51:01.902Z,0
2023-04-18T02:53:27.979Z,0
2023-04-18T02:55:54.073Z,0
2023-04-18T02:58:20.170Z,0
2023-04-18T03:00:46.280Z,0
2023-04-18T03:03:12.355Z,0
2023-04-18T03:05:38.473Z,0
2023-04-18T03:08:04.553Z,0
2023-04-18T03:10:30.644Z,0
2023-04-18T03:12:56.730Z,0
2023-04-18T03:15:22.860Z,0
2023-04-18T03:17:48.952Z,0
2023-04-18T03:20:15.023Z,0
2023-04-18T03:22:40.142Z,0
2023-04-18T03:25:06.260Z,0
2023-04-18T03:27:32.344Z,0
2023-04-18T03:29:58.436Z,0
2023-04-18T03:32:24.524Z,0
2023-04-18T03:34:50.625Z,0
2023-04-18T03:37:16.733Z,0
2023-04-18T03:39:41.854Z,0
2023-04-18T03:42:06.989Z,0
2023-04-18T03:44:32.086Z,0
2023-04-18T03:46:57.193Z,0
2023-04-18T03:49:23.282Z,0
2023-04-18T03:51:49.416Z,0
2023-04-18T03:54:15.524Z,0
2023-04-18T03:56:41.592Z,0
2023-04-18T03:59:07.682Z,0
2023-04-18T04:01:33.787Z,0
2023-04-18T04:03:58.914Z,0
2023-04-18T04:06:24.031Z,0
2023-04-18T04:08:49.141Z,0
2023-04-18T04:11:14.247Z,0
2023-04-18T04:13:40.343Z,0
2023-04-18T04:16:06.434Z,0
2023-04-18T04:18:32.533Z,0
2023-04-18T04:20:58.647Z,0
2023-04-18T04:23:24.724Z,0
2023-04-18T04:25:50.826Z,0
2023-04-18T04:28:16.920Z,0
2023-04-18T04:30:43.010Z,0
2023-04-18T04:33:09.114Z,0
2023-04-18T04:35:35.186Z,5
2023-04-18T04:38:01.285Z,5
2023-04-18T04:40:27.396Z,5
2023-04-18T04:42:52.502Z,5
2023-04-18T04:45:18.587Z,5
2023-04-18T04:47:44.683Z,5
2023-04-18T04:50:10.809Z,5
2023-04-18T04:52:36.881Z,11
2023-04-18T04:55:02.986Z,11
2023-04-18T04:57:29.068Z,16
2023-04-18T04:59:54.193Z,16
2023-04-18T05:02:19.305Z,22
2023-04-18T05:04:45.404Z,22
2023-04-18T05:07:11.502Z,22
2023-04-18T05:09:37.622Z,22
2023-04-18T05:12:03.695Z,28
2023-04-18T05:14:29.787Z,33
2023-04-18T05:16:55.902Z,39
2023-04-18T05:19:21.976Z,39
2023-04-18T05:21:48.088Z,39
2023-04-18T05:24:14.202Z,45
2023-04-18T05:26:40.264Z,50
2023-04-18T05:29:06.365Z,50
2023-04-18T05:31:32.461Z,56
2023-04-18T05:33:57.618Z,56
2023-04-18T05:36:23.682Z,61
2023-04-18T05:38:49.778Z,67
2023-04-18T05:41:15.865Z,67
2023-04-18T05:43:41.971Z,78
2023-04-18T05:46:08.058Z,84
2023-04-18T05:48:34.189Z,84
2023-04-18T05:50:59.295Z,84
2023-04-18T05:53:24.408Z,90
2023-04-18T05:55:49.547Z,90
2023-04-18T05:58:14.628Z,84
2023-04-18T06:00:40.792Z,90
2023-04-18T06:03:06.812Z,106
2023-04-18T06:05:32.987Z,129
2023-04-18T06:07:59.023Z,140
2023-04-18T06:10:25.107Z,151
2023-04-18T06:12:51.214Z,163
2023-04-18T06:15:17.316Z,185
2023-04-18T06:17:43.390Z,180
2023-04-18T06:20:09.506Z,185
2023-04-18T06:22:35.607Z,174
2023-04-18T06:25:01.675Z,163
2023-04-18T06:27:27.977Z,135
2023-04-18T06:29:52.863Z,140
2023-04-18T06:32:19.056Z,146
2023-04-18T06:34:45.078Z,140
2023-04-18T06:37:11.221Z,140
2023-04-18T06:39:37.340Z,135
2023-04-18T06:42:03.496Z,129
2023-04-18T06:44:29.486Z,157
2023-04-18T06:46:54.650Z,168
2023-04-18T06:49:19.745Z,168
2023-04-18T06:51:45.817Z,146
2023-04-18T06:54:11.984Z,135
2023-04-18T06:56:38.057Z,135
2023-04-18T06:59:04.114Z,157
2023-04-18T07:01:30.248Z,174
2023-04-18T07:03:56.369Z,157
2023-04-18T07:06:22.477Z,196
2023-04-18T07:08:48.462Z,174
2023-04-18T07:11:14.674Z,180
2023-04-18T07:13:40.676Z,168
2023-04-18T07:16:06.819Z,151
2023-04-18T07:18:32.859Z,146
2023-04-18T07:20:58.141Z,135
2023-04-18T07:23:24.085Z,118
2023-04-18T07:25:50.152Z,106
2023-04-18T07:28:16.276Z,90
2023-04-18T07:30:42.406Z,112
2023-04-18T07:33:08.630Z,118
2023-04-18T07:35:34.517Z,123
2023-04-18T07:37:59.651Z,146
2023-04-18T07:40:24.863Z,140
2023-04-18T07:42:49.894Z,202
2023-04-18T07:45:15.075Z,208
2023-04-18T07:47:40.120Z,208
2023-04-18T07:50:05.231Z,213
2023-04-18T07:52:31.395Z,282
2023-04-18T07:54:57.483Z,332
2023-04-18T07:57:23.780Z,327
2023-04-18T07:59:49.823Z,344
2023-04-18T08:02:15.836Z,287
2023-04-18T08:04:41.872Z,310
2023-04-18T08:07:07.913Z,338
2023-04-18T08:09:34.043Z,355
2023-04-18T08:12:00.082Z,338
2023-04-18T08:14:26.191Z,321
2023-04-18T08:16:52.296Z,271
2023-04-18T08:19:18.393Z,293
2023-04-18T08:21:43.506Z,332
2023-04-18T08:24:09.598Z,439
2023-04-18T08:26:35.679Z,428
2023-04-18T08:29:01.825Z,366
2023-04-18T08:33:54.047Z,355
2023-04-18T08:36:20.094Z,338
2023-04-18T08:38:46.202Z,276
2023-04-18T08:41:11.335Z,344
2023-04-18T08:43:36.444Z,271
2023-04-18T08:46:01.543Z,276
2023-04-18T08:48:26.659Z,321
2023-04-18T08:50:52.736Z,321
2023-04-18T08:53:17.889Z,372
2023-04-18T08:55:43.043Z,361
2023-04-18T08:58:09.201Z,310
2023-04-18T09:00:35.175Z,383
2023-04-18T09:03:01.260Z,355
2023-04-18T09:05:27.379Z,344
2023-04-18T09:07:53.453Z,287
2023-04-18T09:10:19.550Z,389
2023-04-18T09:12:45.637Z,355
2023-04-18T09:15:11.741Z,394
2023-04-18T09:17:37.822Z,439
2023-04-18T09:20:03.931Z,439
2023-04-18T09:22:30.000Z,467
2023-04-18T09:24:56.120Z,434
2023-04-18T09:27:21.218Z,575
2023-04-18T09:29:47.319Z,394
2023-04-18T09:32:13.413Z,570
2023-04-18T09:34:39.493Z,547
2023-04-18T09:37:05.625Z,592
2023-04-18T09:39:31.723Z,587
2023-04-18T09:41:57.800Z,513
2023-04-18T09:44:22.941Z,564
2023-04-18T09:46:48.035Z,428
2023-04-18T09:49:14.139Z,287
2023-04-18T09:51:39.249Z,332
2023-04-18T09:54:04.372Z,377
2023-04-18T09:56:30.466Z,411
2023-04-18T09:58:56.688Z,439
2023-04-18T10:01:22.639Z,479
2023-04-18T10:03:48.755Z,383
2023-04-18T10:06:14.879Z,389
2023-04-18T10:08:40.941Z,575
2023-04-18T10:11:07.039Z,615
2023-04-18T10:13:33.136Z,615
2023-04-18T10:15:59.259Z,581
2023-04-18T10:18:25.322Z,587
2023-04-18T10:20:51.405Z,620
2023-04-18T10:23:17.494Z,542
2023-04-18T10:25:42.657Z,609
2023-04-18T10:28:08.768Z,654
2023-04-18T10:30:34.855Z,660
2023-04-18T10:33:00.944Z,553
2023-04-18T10:35:27.037Z,553
2023-04-18T10:37:53.227Z,603
2023-04-18T10:40:19.225Z,603
2023-04-18T10:42:44.377Z,525
2023-04-18T10:45:09.497Z,428
2023-04-18T10:47:34.591Z,344
2023-04-18T10:49:59.650Z,473
2023-04-18T10:52:25.767Z,451
2023-04-18T10:54:51.837Z,445
2023-04-18T10:57:17.941Z,620
2023-04-18T10:59:44.040Z,603
2023-04-18T11:02:10.131Z,484
2023-04-18T11:04:36.321Z,609
2023-04-18T11:07:02.333Z,507
2023-04-18T11:09:28.415Z,428
2023-04-18T11:11:54.504Z,349
2023-04-18T11:14:20.856Z,327
2023-04-18T11:16:46.891Z,151
2023-04-18T11:19:12.852Z,129
2023-04-18T11:21:37.982Z,123
2023-04-18T11:24:04.045Z,157
2023-04-18T11:26:30.242Z,241
2023-04-18T11:28:56.283Z,451
2023-04-18T11:31:22.465Z,507
2023-04-18T11:33:48.391Z,547
2023-04-18T11:36:14.497Z,643
2023-04-18T11:38:40.581Z,682
2023-04-18T11:41:06.713Z,445
2023-04-18T11:43:32.829Z,383
2023-04-18T11:45:58.872Z,417
2023-04-18T11:48:24.959Z,451
2023-04-18T11:50:51.055Z,462
2023-04-18T11:53:17.169Z,456
2023-04-18T11:55:42.322Z,553
2023-04-18T11:58:07.416Z,564
2023-04-18T12:00:32.582Z,716
2023-04-18T12:02:57.675Z,716
2023-04-18T12:05:22.779Z,654
2023-04-18T12:07:47.936Z,501
2023-04-18T12:10:13.950Z,501
2023-04-18T12:12:40.058Z,473
2023-04-18T12:15:06.178Z,394
2023-04-18T12:17:32.248Z,484
2023-04-18T12:19:58.358Z,400
2023-04-18T12:22:24.440Z,467
2023-04-18T12:24:50.523Z,484
2023-04-18T12:27:16.609Z,434
2023-04-18T12:29:42.715Z,310
2023-04-18T12:32:08.808Z,490
2023-04-18T12:34:34.913Z,677
2023-04-18T12:37:01.005Z,632
2023-04-18T12:39:26.102Z,750
2023-04-18T12:41:52.215Z,688
2023-04-18T12:44:18.294Z,727
2023-04-18T12:46:44.385Z,575
2023-04-18T12:49:10.491Z,434
2023-04-18T12:51:36.578Z,377
2023-04-18T12:54:02.669Z,462
2023-04-18T12:56:28.779Z,530
2023-04-18T12:58:54.857Z,587
2023-04-18T13:01:19.983Z,592
2023-04-18T13:03:45.092Z,513
2023-04-18T13:06:11.196Z,451
2023-04-18T13:08:37.339Z,525
2023-04-18T13:11:03.369Z,587
2023-04-18T13:13:29.476Z,473
2023-04-18T13:15:55.558Z,501
2023-04-18T13:18:21.669Z,637
2023-04-18T13:20:47.780Z,575
2023-04-18T13:23:13.858Z,479
2023-04-18T13:25:39.959Z,366
2023-04-18T13:28:06.053Z,241
2023-04-18T13:30:32.139Z,259
2023-04-18T13:32:58.249Z,361
2023-04-18T13:35:23.338Z,344
2023-04-18T13:37:49.436Z,377
2023-04-18T13:40:15.532Z,439
2023-04-18T13:42:41.628Z,372
2023-04-18T13:45:07.725Z,310
2023-04-18T13:47:33.822Z,265
2023-04-18T13:49:59.921Z,265
2023-04-18T13:52:25.045Z,276
2023-04-18T13:54:50.144Z,282
2023-04-18T13:57:15.265Z,304
2023-04-18T13:59:40.381Z,377
2023-04-18T14:02:06.494Z,451
2023-04-18T14:04:32.574Z,484
2023-04-18T14:06:58.665Z,496
2023-04-18T14:09:24.759Z,456
2023-04-18T14:11:50.858Z,434
2023-04-18T14:14:16.954Z,422
2023-04-18T14:16:43.051Z,434
2023-04-18T14:19:09.138Z,467
2023-04-18T14:21:35.237Z,496
2023-04-18T14:24:01.337Z,525
2023-04-18T14:26:27.426Z,592
2023-04-18T14:28:53.513Z,626
2023-04-18T14:31:18.620Z,542
2023-04-18T14:33:44.880Z,525
2023-04-18T14:36:10.841Z,542
2023-04-18T14:38:36.896Z,525
2023-04-18T14:41:03.066Z,564
2023-04-18T14:43:29.198Z,603
2023-04-18T14:45:55.210Z,705
2023-04-18T14:48:21.314Z,575
2023-04-18T14:50:46.518Z,570
2023-04-18T14:53:11.685Z,501
2023-04-18T14:55:36.797Z,507
2023-04-18T14:58:01.830Z,507
2023-04-18T15:00:26.982Z,632
2023-04-18T15:02:51.999Z,2173
2023-04-18T15:05:18.088Z,1332
2023-04-18T15:07:44.201Z,1027
2023-04-18T15:10:10.284Z,818
2023-04-18T15:12:36.382Z,807
2023-04-18T15:15:02.465Z,276
2023-04-18T15:17:28.575Z,185
2023-04-18T15:19:54.669Z,129
2023-04-18T15:22:20.779Z,135
2023-04-18T15:24:46.848Z,185
2023-04-18T15:27:12.962Z,174
2023-04-18T15:29:39.045Z,180
2023-04-18T15:32:05.148Z,225
2023-04-18T15:34:30.251Z,202
2023-04-18T15:36:56.486Z,185
2023-04-18T15:39:22.494Z,174
2023-04-18T15:41:48.530Z,196
2023-04-18T15:44:14.637Z,151
2023-04-18T15:46:40.737Z,106
2023-04-18T15:49:06.819Z,90
2023-04-18T15:51:31.951Z,106
2023-04-18T15:53:57.057Z,106
2023-04-18T15:56:22.189Z,95
2023-04-18T15:58:47.337Z,90
2023-04-18T16:01:13.374Z,90
2023-04-18T16:03:39.480Z,90
2023-04-18T16:06:05.613Z,73
2023-04-18T16:08:31.680Z,67
2023-04-18T16:10:57.754Z,67
2023-04-18T16:13:23.851Z,61
2023-04-18T16:15:49.946Z,61
2023-04-18T16:18:16.048Z,61
2023-04-18T16:20:42.146Z,61
2023-04-18T16:23:08.243Z,56
2023-04-18T16:25:34.337Z,67
2023-04-18T16:28:00.442Z,73
2023-04-18T16:30:26.542Z,73
2023-04-18T16:32:52.643Z,73
2023-04-18T16:35:18.813Z,73
2023-04-18T16:37:44.823Z,78
2023-04-18T16:40:10.933Z,78
2023-04-18T16:42:37.081Z,78
2023-04-18T16:45:03.143Z,78
2023-04-18T16:47:29.185Z,84
2023-04-18T16:49:55.295Z,84
2023-04-18T16:52:21.383Z,78
2023-04-18T16:54:47.521Z,78
2023-04-18T16:57:13.588Z,73
2023-04-18T16:59:39.703Z,73
2023-04-18T17:02:05.892Z,67
2023-04-18T17:04:31.901Z,50
2023-04-18T17:06:57.983Z,39
2023-04-18T17:09:24.119Z,28
2023-04-18T17:11:49.236Z,28
2023-04-18T17:14:15.280Z,28
2023-04-18T17:16:41.364Z,22
2023-04-18T17:19:07.470Z,22
2023-04-18T17:21:33.618Z,22
2023-04-18T17:23:59.643Z,16
2023-04-18T17:26:25.780Z,16
2023-04-18T17:28:51.855Z,16
2023-04-18T17:31:17.935Z,16
2023-04-18T17:33:44.103Z,11
2023-04-18T17:36:10.133Z,16
2023-04-18T17:38:35.246Z,11
2023-04-18T17:41:01.332Z,16
2023-04-18T17:43:27.460Z,16
2023-04-18T17:45:53.536Z,11
2023-04-18T17:48:19.628Z,11
2023-04-18T17:50:45.708Z,5
2023-04-18T17:53:11.810Z,11
2023-04-18T17:55:37.910Z,5
2023-04-18T17:58:04.027Z,5
2023-04-18T18:00:30.099Z,5
2023-04-18T18:02:56.179Z,5
2023-04-18T18:05:22.392Z,5
2023-04-18T18:07:48.390Z,0
2023-04-18T18:10:14.495Z,0
2023-04-18T18:12:40.597Z,0
2023-04-18T18:15:06.671Z,0
2023-04-18T18:17:32.781Z,0
2023-04-18T18:19:58.880Z,0
2023-04-18T18:22:24.950Z,0
2023-04-18T18:24:51.064Z,0
2023-04-18T18:27:16.198Z,0
2023-04-18T18:29:41.331Z,0
2023-04-18T18:32:06.415Z,0
2023-04-18T18:34:31.561Z,0
2023-04-18T18:36:56.650Z,0
2023-04-18T18:39:21.781Z,0
2023-04-18T18:41:47.871Z,0
2023-04-18T18:44:13.955Z,0
2023-04-18T18:46:40.067Z,0
2023-04-18T18:49:06.157Z,0
2023-04-18T18:51:32.232Z,0
2023-04-18T18:53:58.341Z,0
2023-04-18T18:56:24.456Z,0
2023-04-18T18:58:50.530Z,0
2023-04-18T19:01:16.625Z,0
2023-04-18T19:03:42.733Z,0
2023-04-18T19:06:08.856Z,0
2023-04-18T19:08:34.958Z,0
2023-04-18T19:11:00.033Z,0
2023-04-18T19:13:26.133Z,0
2023-04-18T19:15:52.227Z,0
2023-04-18T19:18:18.352Z,0
2023-04-18T19:20:44.405Z,0
2023-04-18T19:23:10.540Z,0
2023-04-18T19:25:36.634Z,0
2023-04-18T19:28:01.733Z,0
2023-04-18T19:30:26.856Z,0
2023-04-18T19:32:51.981Z,0
2023-04-18T19:35:17.076Z,0
2023-04-18T19:37:43.169Z,0
2023-04-18T19:40:09.273Z,0
2023-04-18T19:42:35.413Z,0
2023-04-18T19:45:01.518Z,0
2023-04-18T19:47:27.576Z,0
2023-04-18T19:49:53.647Z,0
2023-04-18T19:52:19.717Z,0
2023-04-18T19:54:45.841Z,0
2023-04-18T19:57:11.933Z,0
2023-04-18T19:59:38.018Z,0
2023-04-18T20:02:04.123Z,0
2023-04-18T20:04:30.245Z,0
2023-04-18T20:06:55.340Z,0
2023-04-18T20:09:21.599Z,0
2023-04-18T20:11:47.558Z,0
2023-04-18T20:14:13.601Z,0
2023-04-18T20:16:39.718Z,0
2023-04-18T20:19:05.844Z,0
2023-04-18T20:21:31.920Z,0
2023-04-18T20:23:57.028Z,0
2023-04-18T20:26:22.185Z,0
2023-04-18T20:28:47.258Z,0
2023-04-18T20:31:12.404Z,0
2023-04-18T20:33:38.463Z,0
2023-04-18T20:36:04.553Z,0
2023-04-18T20:38:30.650Z,0
2023-04-18T20:40:56.832Z,0
2023-04-18T20:43:22.845Z,0
2023-04-18T20:45:48.941Z,0
2023-04-18T20:48:15.047Z,0
2023-04-18T20:50:40.207Z,0
2023-04-18T20:53:05.281Z,0
2023-04-18T20:55:31.415Z,0
2023-04-18T20:57:57.489Z,0
2023-04-18T21:00:23.572Z,0
2023-04-18T21:02:49.636Z,0
2023-04-18T21:05:15.750Z,0
2023-04-18T21:07:41.845Z,0
2023-04-18T21:10:07.940Z,0
2023-04-18T21:12:34.028Z,0
2023-04-18T21:15:00.188Z,0
2023-04-18T21:17:26.226Z,0
2023-04-18T21:19:52.442Z,0
2023-04-18T21:22:18.407Z,0
2023-04-18T21:24:43.558Z,0
2023-04-18T21:27:09.703Z,0
2023-04-18T21:29:35.720Z,0
2023-04-18T21:32:01.812Z,0
2023-04-18T21:34:27.926Z,0
2023-04-18T21:36:54.014Z,0
2023-04-18T21:39:20.100Z,0
2023-04-18T21:41:45.281Z,0
2023-04-18T21:44:10.409Z,0
2023-04-18T21:46:35.527Z,0
2023-04-18T21:49:00.588Z,0
2023-04-18T21:51:25.704Z,0
2023-04-18T21:53:50.936Z,0
2023-04-18T21:56:16.935Z,0
2023-04-18T21:58:43.051Z,0
2023-04-18T22:01:09.183Z,0
2023-04-18T22:03:35.215Z,0
2023-04-18T22:06:01.269Z,0
2023-04-18T22:08:27.392Z,0
2023-04-18T22:10:53.470Z,0
2023-04-18T22:13:19.620Z,0
2023-04-18T22:15:45.670Z,0
2023-04-18T22:18:11.746Z,0
2023-04-18T22:20:37.853Z,0
2023-04-18T22:23:03.964Z,0
2023-04-18T22:25:29.054Z,0
2023-04-18T22:27:55.143Z,0
2023-04-18T22:30:21.292Z,0
2023-04-18T22:32:47.417Z,0
2023-04-18T22:35:13.451Z,0
2023-04-18T22:37:39.594Z,0
2023-04-18T22:40:05.640Z,0
2023-04-18T22:42:31.746Z,0
2023-04-18T22:44:57.816Z,0
2023-04-18T22:47:23.048Z,0
2023-04-18T22:49:48.081Z,0
2023-04-18T22:52:14.142Z,0
2023-04-18T22:54:40.256Z,0
2023-04-18T22:57:06.331Z,0
2023-04-18T22:59:32.593Z,0
2023-04-18T23:01:58.546Z,0
2023-04-18T23:04:24.650Z,0
2023-04-18T23:06:50.768Z,0
2023-04-18T23:09:16.984Z,0
2023-04-18T23:11:42.955Z,0
2023-04-18T23:14:09.056Z,0
2023-04-18T23:16:35.146Z,0
2023-04-18T23:19:01.259Z,0
2023-04-18T23:21:26.352Z,0
2023-04-18T23:23:52.447Z,0
2023-04-18T23:26:18.608Z,0
2023-04-18T23:28:44.726Z,0
2023-04-18T23:31:10.727Z,0
2023-04-18T23:33:36.804Z,0
2023-04-18T23:36:02.907Z,0
2023-04-18T23:38:28.030Z,0
2023-04-18T23:40:53.135Z,0
2023-04-18T23:43:18.259Z,0
2023-04-18T23:45:43.373Z,0
2023-04-18T23:48:08.463Z,0
2023-04-18T23:50:33.575Z,0
2023-04-18T23:52:59.677Z,0
2023-04-18T23:55:25.795Z,0
2023-04-18T23:57:51.945Z,0
